Terminal Aerodrome Forecast
Issued by NWS

Home | Current Version | Previous Version | Text Only | Print | Product List | Glossary On
Versions: 1 2 3 4 5 6 7 8 9 10 11 12
000
FTUS41 KBTV 250527
TAFRUT
TAF
KRUT 250527Z 2506/2606 12009KT P6SM OVC250
     FM251200 13004KT P6SM OVC070
     FM251700 14008KT P6SM OVC070
     FM260000 13006KT P6SM OVC050
      AMD LTD TO CLD VIS AND WIND=

USA.gov is the U.S. government's official web portal to all federal, state and local government web resources and services.